sensor_id;sensor_type;location;lat;lon;timestamp;P1;durP1;ratioP1;P2;durP2;ratioP2
14994;SDS011;7593;49.006;8.372;2024-01-30T00:00:05;32.20;;;11.93;;
14994;SDS011;7593;49.006;8.372;2024-01-30T00:02:33;15.87;;;8.23;;
14994;SDS011;7593;49.006;8.372;2024-01-30T00:05:01;10.47;;;8.13;;
14994;SDS011;7593;49.006;8.372;2024-01-30T00:07:28;16.67;;;9.23;;
14994;SDS011;7593;49.006;8.372;2024-01-30T00:09:55;14.40;;;9.60;;
14994;SDS011;7593;49.006;8.372;2024-01-30T00:12:22;11.77;;;8.23;;
14994;SDS011;7593;49.006;8.372;2024-01-30T00:14:48;12.40;;;8.83;;
14994;SDS011;7593;49.006;8.372;2024-01-30T00:17:15;11.97;;;9.23;;
14994;SDS011;7593;49.006;8.372;2024-01-30T00:19:42;11.10;;;8.50;;
14994;SDS011;7593;49.006;8.372;2024-01-30T00:22:10;10.37;;;7.73;;
14994;SDS011;7593;49.006;8.372;2024-01-30T00:24:37;9.97;;;8.20;;
14994;SDS011;7593;49.006;8.372;2024-01-30T00:27:04;11.87;;;8.97;;
14994;SDS011;7593;49.006;8.372;2024-01-30T00:29:31;12.57;;;8.90;;
14994;SDS011;7593;49.006;8.372;2024-01-30T00:31:58;9.67;;;7.60;;
14994;SDS011;7593;49.006;8.372;2024-01-30T00:34:25;9.50;;;7.27;;
14994;SDS011;7593;49.006;8.372;2024-01-30T00:36:52;9.77;;;7.20;;
14994;SDS011;7593;49.006;8.372;2024-01-30T00:39:20;11.80;;;7.27;;
14994;SDS011;7593;49.006;8.372;2024-01-30T00:41:47;8.80;;;7.17;;
14994;SDS011;7593;49.006;8.372;2024-01-30T00:44:14;11.43;;;7.73;;
14994;SDS011;7593;49.006;8.372;2024-01-30T00:46:40;10.23;;;7.40;;
14994;SDS011;7593;49.006;8.372;2024-01-30T00:49:07;15.33;;;7.53;;
14994;SDS011;7593;49.006;8.372;2024-01-30T00:51:34;11.60;;;7.37;;
14994;SDS011;7593;49.006;8.372;2024-01-30T00:54:01;10.80;;;7.50;;
14994;SDS011;7593;49.006;8.372;2024-01-30T00:56:30;11.57;;;7.40;;
14994;SDS011;7593;49.006;8.372;2024-01-30T00:58:56;8.60;;;6.97;;
14994;SDS011;7593;49.006;8.372;2024-01-30T01:01:23;11.30;;;7.43;;
14994;SDS011;7593;49.006;8.372;2024-01-30T01:03:50;8.67;;;6.37;;
14994;SDS011;7593;49.006;8.372;2024-01-30T01:06:17;7.87;;;6.60;;
14994;SDS011;7593;49.006;8.372;2024-01-30T01:08:44;7.43;;;6.03;;
14994;SDS011;7593;49.006;8.372;2024-01-30T01:11:10;8.83;;;6.10;;
14994;SDS011;7593;49.006;8.372;2024-01-30T01:13:38;8.47;;;5.97;;
14994;SDS011;7593;49.006;8.372;2024-01-30T01:16:05;8.33;;;6.03;;
14994;SDS011;7593;49.006;8.372;2024-01-30T01:18:32;8.13;;;6.30;;
14994;SDS011;7593;49.006;8.372;2024-01-30T01:20:59;8.33;;;5.97;;
14994;SDS011;7593;49.006;8.372;2024-01-30T01:23:26;9.20;;;5.97;;
14994;SDS011;7593;49.006;8.372;2024-01-30T01:25:53;7.00;;;5.80;;
14994;SDS011;7593;49.006;8.372;2024-01-30T01:28:20;8.17;;;5.83;;
14994;SDS011;7593;49.006;8.372;2024-01-30T01:30:48;7.77;;;6.17;;
14994;SDS011;7593;49.006;8.372;2024-01-30T01:33:15;10.97;;;6.67;;
14994;SDS011;7593;49.006;8.372;2024-01-30T01:35:42;9.77;;;7.33;;
14994;SDS011;7593;49.006;8.372;2024-01-30T01:38:09;7.83;;;6.77;;
14994;SDS011;7593;49.006;8.372;2024-01-30T01:40:36;8.63;;;6.50;;
14994;SDS011;7593;49.006;8.372;2024-01-30T01:43:05;7.93;;;6.23;;
14994;SDS011;7593;49.006;8.372;2024-01-30T01:45:32;8.43;;;6.53;;
14994;SDS011;7593;49.006;8.372;2024-01-30T01:48:00;7.37;;;6.07;;
14994;SDS011;7593;49.006;8.372;2024-01-30T01:50:27;8.50;;;6.60;;
14994;SDS011;7593;49.006;8.372;2024-01-30T01:52:54;7.40;;;6.20;;
14994;SDS011;7593;49.006;8.372;2024-01-30T01:55:21;7.67;;;6.13;;
14994;SDS011;7593;49.006;8.372;2024-01-30T01:57:49;7.90;;;5.77;;
14994;SDS011;7593;49.006;8.372;2024-01-30T02:00:17;7.37;;;6.07;;
14994;SDS011;7593;49.006;8.372;2024-01-30T02:02:46;7.83;;;5.43;;
14994;SDS011;7593;49.006;8.372;2024-01-30T02:05:14;7.30;;;6.17;;
14994;SDS011;7593;49.006;8.372;2024-01-30T02:07:41;9.27;;;6.20;;
14994;SDS011;7593;49.006;8.372;2024-01-30T02:10:09;8.10;;;5.70;;
14994;SDS011;7593;49.006;8.372;2024-01-30T02:12:36;6.90;;;5.53;;
14994;SDS011;7593;49.006;8.372;2024-01-30T02:15:04;6.87;;;5.67;;
14994;SDS011;7593;49.006;8.372;2024-01-30T02:17:32;9.30;;;6.10;;
14994;SDS011;7593;49.006;8.372;2024-01-30T02:19:59;8.70;;;5.87;;
14994;SDS011;7593;49.006;8.372;2024-01-30T02:22:28;8.23;;;6.20;;
14994;SDS011;7593;49.006;8.372;2024-01-30T02:24:55;7.00;;;5.90;;
14994;SDS011;7593;49.006;8.372;2024-01-30T02:27:22;6.23;;;5.63;;
14994;SDS011;7593;49.006;8.372;2024-01-30T02:29:49;7.07;;;6.07;;
14994;SDS011;7593;49.006;8.372;2024-01-30T02:32:16;7.03;;;5.77;;
14994;SDS011;7593;49.006;8.372;2024-01-30T02:34:42;7.97;;;6.17;;
14994;SDS011;7593;49.006;8.372;2024-01-30T02:37:09;6.13;;;5.33;;
14994;SDS011;7593;49.006;8.372;2024-01-30T02:39:37;6.60;;;5.57;;
14994;SDS011;7593;49.006;8.372;2024-01-30T02:42:04;7.73;;;5.37;;
14994;SDS011;7593;49.006;8.372;2024-01-30T02:44:31;6.67;;;5.67;;
14994;SDS011;7593;49.006;8.372;2024-01-30T02:46:58;6.50;;;5.60;;
14994;SDS011;7593;49.006;8.372;2024-01-30T02:49:25;7.67;;;5.60;;
14994;SDS011;7593;49.006;8.372;2024-01-30T02:51:53;6.77;;;5.53;;
14994;SDS011;7593;49.006;8.372;2024-01-30T02:54:20;7.63;;;5.70;;
14994;SDS011;7593;49.006;8.372;2024-01-30T02:56:48;6.37;;;5.50;;
14994;SDS011;7593;49.006;8.372;2024-01-30T02:59:14;8.10;;;5.77;;
14994;SDS011;7593;49.006;8.372;2024-01-30T03:01:44;6.50;;;5.50;;
14994;SDS011;7593;49.006;8.372;2024-01-30T03:04:12;7.03;;;5.70;;
14994;SDS011;7593;49.006;8.372;2024-01-30T03:06:44;6.33;;;5.23;;
14994;SDS011;7593;49.006;8.372;2024-01-30T03:09:11;7.10;;;5.63;;
14994;SDS011;7593;49.006;8.372;2024-01-30T03:11:38;6.93;;;5.43;;
14994;SDS011;7593;49.006;8.372;2024-01-30T03:14:06;8.57;;;5.70;;
14994;SDS011;7593;49.006;8.372;2024-01-30T03:16:36;7.03;;;5.43;;
14994;SDS011;7593;49.006;8.372;2024-01-30T03:19:02;8.47;;;6.30;;
14994;SDS011;7593;49.006;8.372;2024-01-30T03:21:30;7.10;;;5.93;;
14994;SDS011;7593;49.006;8.372;2024-01-30T03:23:56;6.67;;;5.90;;
14994;SDS011;7593;49.006;8.372;2024-01-30T03:26:24;7.43;;;6.10;;
14994;SDS011;7593;49.006;8.372;2024-01-30T03:28:51;8.07;;;5.67;;
14994;SDS011;7593;49.006;8.372;2024-01-30T03:31:19;7.67;;;5.77;;
14994;SDS011;7593;49.006;8.372;2024-01-30T03:33:46;7.20;;;5.40;;
14994;SDS011;7593;49.006;8.372;2024-01-30T03:36:12;7.57;;;5.63;;
14994;SDS011;7593;49.006;8.372;2024-01-30T03:38:41;6.60;;;5.07;;
14994;SDS011;7593;49.006;8.372;2024-01-30T03:41:08;9.03;;;5.60;;
14994;SDS011;7593;49.006;8.372;2024-01-30T03:43:35;7.70;;;6.13;;
14994;SDS011;7593;49.006;8.372;2024-01-30T03:46:02;5.87;;;4.90;;
14994;SDS011;7593;49.006;8.372;2024-01-30T03:48:30;7.33;;;5.73;;
14994;SDS011;7593;49.006;8.372;2024-01-30T03:50:57;9.90;;;5.80;;
14994;SDS011;7593;49.006;8.372;2024-01-30T03:53:24;8.13;;;5.63;;
14994;SDS011;7593;49.006;8.372;2024-01-30T03:55:51;9.40;;;5.60;;
14994;SDS011;7593;49.006;8.372;2024-01-30T03:58:18;7.20;;;5.30;;
14994;SDS011;7593;49.006;8.372;2024-01-30T04:00:44;7.03;;;5.60;;
14994;SDS011;7593;49.006;8.372;2024-01-30T04:03:11;7.20;;;5.17;;
14994;SDS011;7593;49.006;8.372;2024-01-30T04:05:39;7.57;;;5.53;;
14994;SDS011;7593;49.006;8.372;2024-01-30T04:08:06;6.83;;;5.03;;
14994;SDS011;7593;49.006;8.372;2024-01-30T04:10:33;6.60;;;4.93;;
14994;SDS011;7593;49.006;8.372;2024-01-30T04:13:00;6.07;;;4.20;;
14994;SDS011;7593;49.006;8.372;2024-01-30T04:15:27;5.80;;;4.70;;
14994;SDS011;7593;49.006;8.372;2024-01-30T04:17:56;5.67;;;5.03;;
14994;SDS011;7593;49.006;8.372;2024-01-30T04:20:24;6.60;;;5.47;;
14994;SDS011;7593;49.006;8.372;2024-01-30T04:22:52;6.60;;;5.23;;
14994;SDS011;7593;49.006;8.372;2024-01-30T04:25:19;6.63;;;5.40;;
14994;SDS011;7593;49.006;8.372;2024-01-30T04:27:46;5.97;;;5.00;;
14994;SDS011;7593;49.006;8.372;2024-01-30T04:30:13;8.27;;;5.07;;
14994;SDS011;7593;49.006;8.372;2024-01-30T04:32:40;7.47;;;5.17;;
14994;SDS011;7593;49.006;8.372;2024-01-30T04:35:06;7.43;;;5.67;;
14994;SDS011;7593;49.006;8.372;2024-01-30T04:37:33;5.97;;;4.67;;
14994;SDS011;7593;49.006;8.372;2024-01-30T04:40:02;6.03;;;4.57;;
14994;SDS011;7593;49.006;8.372;2024-01-30T04:42:29;5.77;;;5.00;;
14994;SDS011;7593;49.006;8.372;2024-01-30T04:44:55;5.13;;;4.30;;
14994;SDS011;7593;49.006;8.372;2024-01-30T04:47:22;5.47;;;4.43;;
14994;SDS011;7593;49.006;8.372;2024-01-30T04:49:49;5.50;;;4.40;;
14994;SDS011;7593;49.006;8.372;2024-01-30T04:52:17;9.17;;;5.37;;
14994;SDS011;7593;49.006;8.372;2024-01-30T04:54:44;6.57;;;4.70;;
14994;SDS011;7593;49.006;8.372;2024-01-30T04:57:12;5.97;;;4.90;;
14994;SDS011;7593;49.006;8.372;2024-01-30T04:59:39;6.33;;;4.67;;
14994;SDS011;7593;49.006;8.372;2024-01-30T05:02:05;5.67;;;4.03;;
14994;SDS011;7593;49.006;8.372;2024-01-30T05:04:33;6.60;;;4.80;;
14994;SDS011;7593;49.006;8.372;2024-01-30T05:07:00;8.47;;;5.30;;
14994;SDS011;7593;49.006;8.372;2024-01-30T05:09:26;8.30;;;5.10;;
14994;SDS011;7593;49.006;8.372;2024-01-30T05:11:53;6.93;;;4.90;;
14994;SDS011;7593;49.006;8.372;2024-01-30T05:14:21;6.13;;;4.77;;
14994;SDS011;7593;49.006;8.372;2024-01-30T05:16:48;5.63;;;4.03;;
14994;SDS011;7593;49.006;8.372;2024-01-30T05:19:15;4.80;;;4.30;;
14994;SDS011;7593;49.006;8.372;2024-01-30T05:21:42;10.83;;;5.20;;
14994;SDS011;7593;49.006;8.372;2024-01-30T05:24:09;7.33;;;5.20;;
14994;SDS011;7593;49.006;8.372;2024-01-30T05:26:35;7.63;;;5.63;;
14994;SDS011;7593;49.006;8.372;2024-01-30T05:29:02;9.07;;;5.50;;
14994;SDS011;7593;49.006;8.372;2024-01-30T05:31:30;11.17;;;5.80;;
14994;SDS011;7593;49.006;8.372;2024-01-30T05:33:57;7.83;;;5.33;;
14994;SDS011;7593;49.006;8.372;2024-01-30T05:36:24;28.23;;;18.10;;
14994;SDS011;7593;49.006;8.372;2024-01-30T05:38:51;7.90;;;5.80;;
14994;SDS011;7593;49.006;8.372;2024-01-30T05:41:17;10.00;;;5.70;;
14994;SDS011;7593;49.006;8.372;2024-01-30T05:43:44;7.80;;;5.97;;
14994;SDS011;7593;49.006;8.372;2024-01-30T05:46:11;10.03;;;5.20;;
14994;SDS011;7593;49.006;8.372;2024-01-30T05:48:39;6.70;;;5.07;;
14994;SDS011;7593;49.006;8.372;2024-01-30T05:51:06;6.53;;;5.07;;
14994;SDS011;7593;49.006;8.372;2024-01-30T05:53:33;6.63;;;5.40;;
14994;SDS011;7593;49.006;8.372;2024-01-30T05:56:01;10.23;;;6.90;;
14994;SDS011;7593;49.006;8.372;2024-01-30T05:58:28;6.83;;;5.70;;
14994;SDS011;7593;49.006;8.372;2024-01-30T06:00:56;11.93;;;5.00;;
14994;SDS011;7593;49.006;8.372;2024-01-30T06:03:23;7.00;;;5.10;;
14994;SDS011;7593;49.006;8.372;2024-01-30T06:05:51;6.20;;;5.20;;
14994;SDS011;7593;49.006;8.372;2024-01-30T06:08:18;8.37;;;5.60;;
14994;SDS011;7593;49.006;8.372;2024-01-30T06:10:44;7.97;;;5.60;;
14994;SDS011;7593;49.006;8.372;2024-01-30T06:13:12;7.93;;;6.60;;
14994;SDS011;7593;49.006;8.372;2024-01-30T06:15:39;10.90;;;6.30;;
14994;SDS011;7593;49.006;8.372;2024-01-30T06:18:06;9.00;;;7.10;;
14994;SDS011;7593;49.006;8.372;2024-01-30T06:20:33;10.60;;;6.87;;
14994;SDS011;7593;49.006;8.372;2024-01-30T06:23:01;14.03;;;8.20;;
14994;SDS011;7593;49.006;8.372;2024-01-30T06:25:28;14.80;;;6.67;;
14994;SDS011;7593;49.006;8.372;2024-01-30T06:27:55;15.03;;;12.13;;
14994;SDS011;7593;49.006;8.372;2024-01-30T06:30:22;14.47;;;12.07;;
14994;SDS011;7593;49.006;8.372;2024-01-30T06:32:49;18.63;;;12.73;;
14994;SDS011;7593;49.006;8.372;2024-01-30T06:35:15;20.27;;;13.47;;
14994;SDS011;7593;49.006;8.372;2024-01-30T06:37:42;18.17;;;12.40;;
14994;SDS011;7593;49.006;8.372;2024-01-30T06:40:11;17.83;;;13.40;;
14994;SDS011;7593;49.006;8.372;2024-01-30T06:42:38;16.47;;;12.47;;
14994;SDS011;7593;49.006;8.372;2024-01-30T06:45:05;12.67;;;9.83;;
14994;SDS011;7593;49.006;8.372;2024-01-30T06:47:33;13.17;;;9.03;;
14994;SDS011;7593;49.006;8.372;2024-01-30T06:49:59;12.23;;;9.07;;
14994;SDS011;7593;49.006;8.372;2024-01-30T06:52:27;11.30;;;8.23;;
14994;SDS011;7593;49.006;8.372;2024-01-30T06:54:53;11.97;;;8.93;;
14994;SDS011;7593;49.006;8.372;2024-01-30T06:57:22;12.03;;;9.57;;
14994;SDS011;7593;49.006;8.372;2024-01-30T06:59:48;14.73;;;10.10;;
14994;SDS011;7593;49.006;8.372;2024-01-30T07:02:15;14.10;;;9.53;;
14994;SDS011;7593;49.006;8.372;2024-01-30T07:04:42;11.23;;;8.80;;
14994;SDS011;7593;49.006;8.372;2024-01-30T07:07:08;14.00;;;10.30;;
14994;SDS011;7593;49.006;8.372;2024-01-30T07:09:37;13.67;;;8.50;;
14994;SDS011;7593;49.006;8.372;2024-01-30T07:12:04;18.17;;;14.00;;
14994;SDS011;7593;49.006;8.372;2024-01-30T07:14:33;14.37;;;10.80;;
14994;SDS011;7593;49.006;8.372;2024-01-30T07:17:00;13.87;;;11.37;;
14994;SDS011;7593;49.006;8.372;2024-01-30T07:19:27;13.00;;;9.53;;
14994;SDS011;7593;49.006;8.372;2024-01-30T07:21:54;11.93;;;8.53;;
14994;SDS011;7593;49.006;8.372;2024-01-30T07:24:21;10.23;;;7.70;;
14994;SDS011;7593;49.006;8.372;2024-01-30T07:26:47;11.53;;;7.13;;
14994;SDS011;7593;49.006;8.372;2024-01-30T07:29:14;9.20;;;6.97;;
14994;SDS011;7593;49.006;8.372;2024-01-30T07:31:42;9.00;;;7.17;;
14994;SDS011;7593;49.006;8.372;2024-01-30T07:34:09;10.13;;;6.87;;
14994;SDS011;7593;49.006;8.372;2024-01-30T07:36:36;9.70;;;6.83;;
14994;SDS011;7593;49.006;8.372;2024-01-30T07:39:03;8.47;;;6.63;;
14994;SDS011;7593;49.006;8.372;2024-01-30T07:41:30;14.53;;;7.60;;
14994;SDS011;7593;49.006;8.372;2024-01-30T07:43:56;7.87;;;6.80;;
14994;SDS011;7593;49.006;8.372;2024-01-30T07:46:23;7.83;;;6.20;;
14994;SDS011;7593;49.006;8.372;2024-01-30T07:48:52;8.83;;;6.87;;
14994;SDS011;7593;49.006;8.372;2024-01-30T07:51:20;12.23;;;8.90;;
14994;SDS011;7593;49.006;8.372;2024-01-30T07:53:53;8.00;;;6.73;;
14994;SDS011;7593;49.006;8.372;2024-01-30T07:56:25;10.53;;;6.20;;
14994;SDS011;7593;49.006;8.372;2024-01-30T07:58:52;7.83;;;6.43;;
14994;SDS011;7593;49.006;8.372;2024-01-30T08:01:19;8.33;;;6.23;;
14994;SDS011;7593;49.006;8.372;2024-01-30T08:03:46;8.73;;;5.70;;
14994;SDS011;7593;49.006;8.372;2024-01-30T08:06:14;11.33;;;5.80;;
14994;SDS011;7593;49.006;8.372;2024-01-30T08:08:41;10.27;;;6.43;;
14994;SDS011;7593;49.006;8.372;2024-01-30T08:11:07;10.73;;;6.27;;
14994;SDS011;7593;49.006;8.372;2024-01-30T08:13:34;10.63;;;6.10;;
14994;SDS011;7593;49.006;8.372;2024-01-30T08:16:01;8.77;;;5.93;;
14994;SDS011;7593;49.006;8.372;2024-01-30T08:18:27;7.67;;;5.93;;
14994;SDS011;7593;49.006;8.372;2024-01-30T08:20:54;10.80;;;6.20;;
14994;SDS011;7593;49.006;8.372;2024-01-30T08:23:22;10.40;;;6.30;;
14994;SDS011;7593;49.006;8.372;2024-01-30T08:25:49;14.10;;;7.57;;
14994;SDS011;7593;49.006;8.372;2024-01-30T08:28:16;12.33;;;7.60;;
14994;SDS011;7593;49.006;8.372;2024-01-30T08:30:43;9.73;;;7.77;;
14994;SDS011;7593;49.006;8.372;2024-01-30T08:33:09;9.87;;;7.97;;
14994;SDS011;7593;49.006;8.372;2024-01-30T08:35:36;11.97;;;8.43;;
14994;SDS011;7593;49.006;8.372;2024-01-30T08:38:03;12.07;;;9.30;;
14994;SDS011;7593;49.006;8.372;2024-01-30T08:40:31;10.83;;;8.43;;
14994;SDS011;7593;49.006;8.372;2024-01-30T08:42:58;12.43;;;8.87;;
14994;SDS011;7593;49.006;8.372;2024-01-30T08:45:24;11.03;;;8.53;;
14994;SDS011;7593;49.006;8.372;2024-01-30T08:47:51;10.00;;;8.10;;
14994;SDS011;7593;49.006;8.372;2024-01-30T08:50:18;10.60;;;8.40;;
14994;SDS011;7593;49.006;8.372;2024-01-30T08:52:45;11.77;;;8.30;;
14994;SDS011;7593;49.006;8.372;2024-01-30T08:55:11;9.77;;;7.97;;
14994;SDS011;7593;49.006;8.372;2024-01-30T08:57:40;13.33;;;9.30;;
14994;SDS011;7593;49.006;8.372;2024-01-30T09:00:07;10.53;;;8.47;;
14994;SDS011;7593;49.006;8.372;2024-01-30T09:02:35;11.30;;;8.50;;
14994;SDS011;7593;49.006;8.372;2024-01-30T09:05:03;11.83;;;8.03;;
14994;SDS011;7593;49.006;8.372;2024-01-30T09:07:30;11.70;;;8.67;;
14994;SDS011;7593;49.006;8.372;2024-01-30T09:09:57;10.63;;;7.60;;
14994;SDS011;7593;49.006;8.372;2024-01-30T09:12:24;14.27;;;8.05;;
14994;SDS011;7593;49.006;8.372;2024-01-30T09:14:52;11.17;;;7.57;;
14994;SDS011;7593;49.006;8.372;2024-01-30T09:17:20;9.18;;;7.32;;
14994;SDS011;7593;49.006;8.372;2024-01-30T09:19:46;10.80;;;7.10;;
14994;SDS011;7593;49.006;8.372;2024-01-30T09:22:13;12.10;;;7.70;;
14994;SDS011;7593;49.006;8.372;2024-01-30T09:24:40;10.82;;;8.07;;
14994;SDS011;7593;49.006;8.372;2024-01-30T09:27:07;12.70;;;8.73;;
14994;SDS011;7593;49.006;8.372;2024-01-30T09:29:34;14.45;;;7.72;;
14994;SDS011;7593;49.006;8.372;2024-01-30T09:32:03;8.23;;;6.88;;
14994;SDS011;7593;49.006;8.372;2024-01-30T09:34:31;9.05;;;6.97;;
14994;SDS011;7593;49.006;8.372;2024-01-30T09:36:57;10.07;;;7.78;;
14994;SDS011;7593;49.006;8.372;2024-01-30T09:39:24;7.75;;;6.75;;
14994;SDS011;7593;49.006;8.372;2024-01-30T09:41:53;8.70;;;7.30;;
14994;SDS011;7593;49.006;8.372;2024-01-30T09:44:27;10.95;;;7.22;;
14994;SDS011;7593;49.006;8.372;2024-01-30T09:46:55;10.43;;;7.85;;
14994;SDS011;7593;49.006;8.372;2024-01-30T09:49:25;8.80;;;7.15;;
14994;SDS011;7593;49.006;8.372;2024-01-30T09:51:52;8.82;;;6.97;;
14994;SDS011;7593;49.006;8.372;2024-01-30T09:54:20;9.52;;;7.43;;
14994;SDS011;7593;49.006;8.372;2024-01-30T09:56:48;8.40;;;7.55;;
14994;SDS011;7593;49.006;8.372;2024-01-30T09:59:15;9.25;;;7.70;;
14994;SDS011;7593;49.006;8.372;2024-01-30T10:01:42;10.20;;;7.78;;
14994;SDS011;7593;49.006;8.372;2024-01-30T10:04:09;9.45;;;7.90;;
14994;SDS011;7593;49.006;8.372;2024-01-30T10:06:37;9.02;;;7.90;;
14994;SDS011;7593;49.006;8.372;2024-01-30T10:09:06;11.07;;;8.43;;
14994;SDS011;7593;49.006;8.372;2024-01-30T10:11:33;10.55;;;8.25;;
14994;SDS011;7593;49.006;8.372;2024-01-30T10:14:00;11.35;;;9.57;;
14994;SDS011;7593;49.006;8.372;2024-01-30T10:16:27;10.25;;;8.90;;
14994;SDS011;7593;49.006;8.372;2024-01-30T10:18:54;9.48;;;8.43;;
14994;SDS011;7593;49.006;8.372;2024-01-30T10:21:20;11.70;;;8.90;;
14994;SDS011;7593;49.006;8.372;2024-01-30T10:23:48;12.13;;;8.98;;
14994;SDS011;7593;49.006;8.372;2024-01-30T10:26:16;13.75;;;9.98;;
14994;SDS011;7593;49.006;8.372;2024-01-30T10:28:43;11.35;;;10.23;;
14994;SDS011;7593;49.006;8.372;2024-01-30T10:31:10;12.77;;;10.15;;
14994;SDS011;7593;49.006;8.372;2024-01-30T10:33:36;12.82;;;11.52;;
14994;SDS011;7593;49.006;8.372;2024-01-30T10:36:04;12.88;;;11.48;;
14994;SDS011;7593;49.006;8.372;2024-01-30T10:38:32;14.68;;;11.40;;
14994;SDS011;7593;49.006;8.372;2024-01-30T10:41:00;14.43;;;11.05;;
14994;SDS011;7593;49.006;8.372;2024-01-30T10:43:30;12.63;;;10.63;;
14994;SDS011;7593;49.006;8.372;2024-01-30T10:46:01;12.35;;;10.40;;
14994;SDS011;7593;49.006;8.372;2024-01-30T10:48:36;15.32;;;11.27;;
14994;SDS011;7593;49.006;8.372;2024-01-30T10:51:08;12.45;;;10.45;;
14994;SDS011;7593;49.006;8.372;2024-01-30T10:53:37;15.15;;;10.98;;
14994;SDS011;7593;49.006;8.372;2024-01-30T10:56:06;13.65;;;10.88;;
14994;SDS011;7593;49.006;8.372;2024-01-30T10:58:36;13.40;;;11.05;;
14994;SDS011;7593;49.006;8.372;2024-01-30T11:01:03;13.05;;;11.45;;
14994;SDS011;7593;49.006;8.372;2024-01-30T11:03:31;13.65;;;10.85;;
14994;SDS011;7593;49.006;8.372;2024-01-30T11:06:00;11.95;;;10.68;;
14994;SDS011;7593;49.006;8.372;2024-01-30T11:08:27;13.45;;;10.63;;
14994;SDS011;7593;49.006;8.372;2024-01-30T11:10:55;13.55;;;11.02;;
14994;SDS011;7593;49.006;8.372;2024-01-30T11:13:23;12.65;;;11.20;;
14994;SDS011;7593;49.006;8.372;2024-01-30T11:15:53;15.48;;;10.80;;
14994;SDS011;7593;49.006;8.372;2024-01-30T11:18:23;13.82;;;11.27;;
14994;SDS011;7593;49.006;8.372;2024-01-30T11:20:51;14.65;;;10.43;;
14994;SDS011;7593;49.006;8.372;2024-01-30T11:23:18;12.55;;;10.57;;
14994;SDS011;7593;49.006;8.372;2024-01-30T11:25:48;14.98;;;11.25;;
14994;SDS011;7593;49.006;8.372;2024-01-30T11:28:15;12.35;;;9.90;;
14994;SDS011;7593;49.006;8.372;2024-01-30T11:30:43;13.35;;;11.60;;
14994;SDS011;7593;49.006;8.372;2024-01-30T11:33:12;11.05;;;9.68;;
14994;SDS011;7593;49.006;8.372;2024-01-30T11:35:40;12.82;;;11.07;;
14994;SDS011;7593;49.006;8.372;2024-01-30T11:38:09;11.98;;;9.82;;
14994;SDS011;7593;49.006;8.372;2024-01-30T11:40:37;13.88;;;10.52;;
14994;SDS011;7593;49.006;8.372;2024-01-30T11:43:05;11.85;;;10.57;;
14994;SDS011;7593;49.006;8.372;2024-01-30T11:45:33;11.88;;;10.68;;
14994;SDS011;7593;49.006;8.372;2024-01-30T11:48:02;14.52;;;11.30;;
14994;SDS011;7593;49.006;8.372;2024-01-30T11:50:30;13.00;;;11.18;;
14994;SDS011;7593;49.006;8.372;2024-01-30T11:52:57;13.48;;;12.07;;
14994;SDS011;7593;49.006;8.372;2024-01-30T11:55:26;14.55;;;11.45;;
14994;SDS011;7593;49.006;8.372;2024-01-30T11:57:55;13.57;;;10.85;;
14994;SDS011;7593;49.006;8.372;2024-01-30T12:00:21;13.82;;;11.32;;
14994;SDS011;7593;49.006;8.372;2024-01-30T12:02:49;13.75;;;11.25;;
14994;SDS011;7593;49.006;8.372;2024-01-30T12:05:19;14.30;;;11.52;;
14994;SDS011;7593;49.006;8.372;2024-01-30T12:07:46;13.02;;;11.43;;
14994;SDS011;7593;49.006;8.372;2024-01-30T12:10:13;13.88;;;12.48;;
14994;SDS011;7593;49.006;8.372;2024-01-30T12:12:40;14.88;;;11.45;;
14994;SDS011;7593;49.006;8.372;2024-01-30T12:15:08;13.45;;;11.82;;
14994;SDS011;7593;49.006;8.372;2024-01-30T12:17:36;15.40;;;11.73;;
14994;SDS011;7593;49.006;8.372;2024-01-30T12:20:03;12.85;;;11.55;;
14994;SDS011;7593;49.006;8.372;2024-01-30T12:22:33;12.63;;;11.32;;
14994;SDS011;7593;49.006;8.372;2024-01-30T12:25:02;11.23;;;10.07;;
14994;SDS011;7593;49.006;8.372;2024-01-30T12:27:29;12.45;;;11.07;;
14994;SDS011;7593;49.006;8.372;2024-01-30T12:29:56;14.05;;;10.73;;
14994;SDS011;7593;49.006;8.372;2024-01-30T12:32:23;13.35;;;11.85;;
14994;SDS011;7593;49.006;8.372;2024-01-30T12:34:50;11.73;;;10.50;;
14994;SDS011;7593;49.006;8.372;2024-01-30T12:37:16;13.32;;;11.82;;
14994;SDS011;7593;49.006;8.372;2024-01-30T12:39:49;13.50;;;11.48;;
14994;SDS011;7593;49.006;8.372;2024-01-30T12:42:16;12.40;;;11.07;;
14994;SDS011;7593;49.006;8.372;2024-01-30T12:44:43;14.57;;;12.02;;
14994;SDS011;7593;49.006;8.372;2024-01-30T12:47:10;12.20;;;10.93;;
14994;SDS011;7593;49.006;8.372;2024-01-30T12:49:36;15.52;;;12.38;;
14994;SDS011;7593;49.006;8.372;2024-01-30T12:52:03;15.50;;;11.45;;
14994;SDS011;7593;49.006;8.372;2024-01-30T12:54:31;12.40;;;10.73;;
14994;SDS011;7593;49.006;8.372;2024-01-30T12:56:59;13.60;;;10.25;;
14994;SDS011;7593;49.006;8.372;2024-01-30T12:59:25;13.07;;;10.20;;
14994;SDS011;7593;49.006;8.372;2024-01-30T13:01:52;13.18;;;10.77;;
14994;SDS011;7593;49.006;8.372;2024-01-30T13:04:19;13.07;;;11.13;;
14994;SDS011;7593;49.006;8.372;2024-01-30T13:06:46;14.10;;;10.60;;
14994;SDS011;7593;49.006;8.372;2024-01-30T13:09:12;11.48;;;10.25;;
14994;SDS011;7593;49.006;8.372;2024-01-30T13:11:39;11.35;;;10.20;;
14994;SDS011;7593;49.006;8.372;2024-01-30T13:14:07;14.80;;;10.63;;
14994;SDS011;7593;49.006;8.372;2024-01-30T13:16:34;13.35;;;10.50;;
14994;SDS011;7593;49.006;8.372;2024-01-30T13:19:01;11.95;;;10.13;;
14994;SDS011;7593;49.006;8.372;2024-01-30T13:21:28;13.48;;;10.75;;
14994;SDS011;7593;49.006;8.372;2024-01-30T13:23:55;11.55;;;9.77;;
14994;SDS011;7593;49.006;8.372;2024-01-30T13:26:21;11.30;;;10.10;;
14994;SDS011;7593;49.006;8.372;2024-01-30T13:28:48;13.20;;;10.82;;
14994;SDS011;7593;49.006;8.372;2024-01-30T13:31:16;11.38;;;10.05;;
14994;SDS011;7593;49.006;8.372;2024-01-30T13:33:44;12.43;;;10.30;;
14994;SDS011;7593;49.006;8.372;2024-01-30T13:36:11;12.55;;;10.68;;
14994;SDS011;7593;49.006;8.372;2024-01-30T13:38:38;15.63;;;9.95;;
14994;SDS011;7593;49.006;8.372;2024-01-30T13:41:05;13.48;;;9.90;;
14994;SDS011;7593;49.006;8.372;2024-01-30T13:43:32;11.25;;;10.00;;
14994;SDS011;7593;49.006;8.372;2024-01-30T13:45:59;11.07;;;9.85;;
14994;SDS011;7593;49.006;8.372;2024-01-30T13:48:27;11.65;;;10.13;;
14994;SDS011;7593;49.006;8.372;2024-01-30T13:50:54;13.93;;;9.68;;
14994;SDS011;7593;49.006;8.372;2024-01-30T13:53:21;11.10;;;9.18;;
14994;SDS011;7593;49.006;8.372;2024-01-30T13:55:48;10.27;;;8.80;;
14994;SDS011;7593;49.006;8.372;2024-01-30T13:58:15;10.35;;;8.52;;
14994;SDS011;7593;49.006;8.372;2024-01-30T14:00:41;10.77;;;8.40;;
14994;SDS011;7593;49.006;8.372;2024-01-30T14:03:08;10.18;;;8.30;;
14994;SDS011;7593;49.006;8.372;2024-01-30T14:05:36;10.85;;;8.43;;
14994;SDS011;7593;49.006;8.372;2024-01-30T14:08:03;10.95;;;8.63;;
14994;SDS011;7593;49.006;8.372;2024-01-30T14:10:32;11.07;;;7.85;;
14994;SDS011;7593;49.006;8.372;2024-01-30T14:12:58;15.75;;;8.32;;
14994;SDS011;7593;49.006;8.372;2024-01-30T14:15:25;9.27;;;8.27;;
14994;SDS011;7593;49.006;8.372;2024-01-30T14:17:52;9.27;;;7.78;;
14994;SDS011;7593;49.006;8.372;2024-01-30T14:20:19;9.25;;;7.75;;
14994;SDS011;7593;49.006;8.372;2024-01-30T14:22:47;12.52;;;8.10;;
14994;SDS011;7593;49.006;8.372;2024-01-30T14:25:14;9.80;;;8.10;;
14994;SDS011;7593;49.006;8.372;2024-01-30T14:27:41;8.68;;;7.75;;
14994;SDS011;7593;49.006;8.372;2024-01-30T14:30:09;10.70;;;7.97;;
14994;SDS011;7593;49.006;8.372;2024-01-30T14:32:37;11.27;;;8.30;;
14994;SDS011;7593;49.006;8.372;2024-01-30T14:35:05;11.63;;;9.00;;
14994;SDS011;7593;49.006;8.372;2024-01-30T14:37:33;14.15;;;10.02;;
14994;SDS011;7593;49.006;8.372;2024-01-30T14:40:01;14.23;;;8.85;;
14994;SDS011;7593;49.006;8.372;2024-01-30T14:42:28;14.38;;;8.30;;
14994;SDS011;7593;49.006;8.372;2024-01-30T14:44:56;11.57;;;8.68;;
14994;SDS011;7593;49.006;8.372;2024-01-30T14:47:23;10.55;;;8.52;;
14994;SDS011;7593;49.006;8.372;2024-01-30T14:49:50;12.25;;;8.15;;